Saint-Barthelemy, Canada
Current Conditions -  °F | °C
As of 1:00 AM on Saturday 01 Nov 2014 (Local Time) from CYRQ Reporting Station
Overcast Overcast  
Wind Chill: 31°   Ceiling: 10000
Heat Index: 37°   Visibility: 9mi
Dew Point: 28°   Wind: 8mph
Humidity: 70%   Direction: 20°NNE
Pressure: 30.12"   Gusts: NA
Location:  46.18°N, 73.12°W
Report Text: CYRQ 010500Z AUTO 02007KT 9SM BKN100 OVC120 03/M02 A3012 RMK SLP203
Loading
Personal Weather Stations






























Interactive Weather Map
Tropical Storm Tracking
New forecast layout! Learn more

10-Day Weather Forecast

Advertisements
Track Severe Weather on mobile